ADDS METAR Data INFO
IDs: Format: Raw Decoded Include TAF

Data at: 2328 UTC 19 Oct 2017

KLCI 192256Z AUTO 20016G21KT 10SM CLR 18/05 A2991 RMK AO2 SLP147 T01830050
KLCI 192156Z AUTO 20012G16KT 10SM CLR 19/06 A2992 RMK AO2 SLP150 T01890056
KLCI 192056Z AUTO 20010KT 10SM CLR 21/06 A2993 RMK AO2 SLP153 T02110056 56029
KLCI 191956Z AUTO 21013G19KT 10SM CLR 22/05 A2995 RMK AO2 SLP159 T02170050
KLCI 191856Z AUTO 22016G19KT 10SM CLR 23/04 A2998 RMK AO2 SLP169 T02280044
KLCI 191756Z AUTO 25009KT 10SM CLR 22/07 A3002 RMK AO2 SLP183 T02170072 10217 20061 58037
KLCI 191656Z AUTO 26007KT 10SM CLR 19/09 A3007 RMK AO2 SLP199 T01940089
KLCI 191556Z AUTO 22008KT 10SM CLR 18/08 A3010 RMK AO2 SLP213 T01780083
KLCI 191456Z AUTO 26003KT 10SM CLR 15/09 A3013 RMK AO2 SLP223 T01500089 58018
KLCI 191356Z AUTO 30004KT 10SM CLR 10/08 A3017 RMK AO2 SLP237 T01000083
KLCI 191256Z AUTO 27005KT 10SM SCT002 08/08 A3018 RMK AO2 SLP238 T00780078
KLCI 191248Z AUTO 25006KT 6SM BR BKN002 08/08 A3018 RMK AO2
KLCI 191246Z AUTO 25005KT 1 1/2SM BR OVC002 08/08 A3018 RMK AO2
KLCI 191243Z AUTO 25005KT 3/4SM BR OVC002 07/07 A3018 RMK AO2
KLCI 191156Z AUTO 22003KT 1/4SM FG OVC002 06/06 A3018 RMK AO2 SLP241 T00610061 10067 20044 56012
KLCI 191056Z AUTO 00000KT 1/4SM FG OVC002 06/06 A3019 RMK AO2 SLP243 T00560056
KLCI 191015Z AUTO 23004KT 1/2SM FG OVC002 06/06 A3020 RMK AO2
KLCI 191013Z AUTO 00000KT 1SM BR OVC002 06/06 A3021 RMK AO2
KLCI 190956Z AUTO 26003KT 1SM BR OVC002 07/07 A3021 RMK AO2 SLP250 T00670067
KLCI 190939Z AUTO 23004KT 1/4SM FG OVC002 07/07 A3021 RMK AO2
KLCI 190922Z AUTO 24005KT 1/2SM FG OVC002 07/07 A3021 RMK AO2
KLCI 190902Z AUTO 00000KT 1SM BR OVC002 06/06 A3022 RMK AO2
KLCI 190856Z AUTO 00000KT 2SM BR OVC002 06/06 A3022 RMK AO2 SLP252 T00610061 55005
KLCI 190852Z AUTO 00000KT 3SM BR OVC002 06/06 A3022 RMK AO2
KLCI 190845Z AUTO 00000KT 1 1/4SM BR OVC002 06/05 A3022 RMK AO2 VIS 1/2V5
KLCI 190832Z AUTO 00000KT 3/4SM BR OVC002 06/05 A3022 RMK AO2
KLCI 190828Z AUTO 00000KT 1 3/4SM BR BKN002 05/04 A3022 RMK AO2
KLCI 190801Z AUTO 00000KT 3SM BR BKN002 05/05 A3022 RMK AO2
KLCI 190759Z AUTO 00000KT 1 1/2SM BR OVC002 05/05 A3022 RMK AO2 VIS 1/2V5
KLCI 190756Z AUTO 00000KT 3/4SM BR BKN002 05/05 A3022 RMK AO2 VIS 1/4V5 SLP252 T00500050
KLCI 190753Z AUTO 00000KT 1/2SM FG BKN002 05/05 A3022 RMK AO2
KLCI 190749Z AUTO 00000KT 1SM BR BKN002 05/04 A3022 RMK AO2
KLCI 190746Z AUTO 00000KT 2 1/2SM BR BKN002 05/04 A3022 RMK AO2
KLCI 190729Z AUTO 00000KT 10SM FEW002 06/04 A3022 RMK AO2
KLCI 190656Z AUTO 00000KT 10SM CLR 04/04 A3023 RMK AO2 SLP255 T00440039
KLCI 190556Z AUTO 00000KT 10SM FEW001 06/04 A3024 RMK AO2 SLP258 T00560044 10106 20056 56007
KLCI 190521Z AUTO 00000KT 10SM FEW001 06/06 A3024 RMK AO2
KLCI 190456Z AUTO 00000KT 10SM CLR 07/06 A3024 RMK AO2 SLP260 T00670056
KLCI 190356Z AUTO 00000KT 10SM CLR 07/06 A3025 RMK AO2 SLP263 T00670061 402060033
KLCI 190256Z AUTO 00000KT 10SM CLR 07/06 A3026 RMK AO2 SLP266 T00670056 51005
KLCI 190156Z AUTO 00000KT 10SM CLR 08/07 A3025 RMK AO2 SLP265 T00830067
KLCI 190056Z AUTO 00000KT 10SM CLR 09/07 A3025 RMK AO2 SLP266 T00940072
KLCI 182356Z AUTO 00000KT 10SM CLR 11/08 A3024 RMK AO2 SLP262 T01060078 10206 20100 51012
KLCI 182256Z AUTO 24004KT 10SM CLR 12/08 A3024 RMK AO2 SLP261 T01220078
KLCI 182156Z AUTO 00000KT 10SM CLR 15/09 A3022 RMK AO2 SLP255 T01500089
KLCI 182056Z AUTO 24005KT 10SM CLR 19/06 A3020 RMK AO2 SLP248 T01940061 53001
KLCI 181956Z AUTO 24005KT 10SM CLR 20/05 A3020 RMK AO2 SLP246 T02000050
KLCI 181856Z AUTO 26007KT 230V300 10SM CLR 20/04 A3020 RMK AO2 SLP245 T02000039
KLCI 181756Z AUTO 29010G15KT 10SM CLR 19/04 A3020 RMK AO2 SLP246 T01940039 10200 20083 58013
KLCI 181656Z AUTO 28007KT 10SM CLR 18/06 A3022 RMK AO2 SLP251 T01830061
KLCI 181556Z AUTO 25010KT 10SM CLR 17/07 A3023 RMK AO2 SLP257 T01720067
KLCI 181456Z AUTO 21009KT 10SM CLR 16/06 A3024 RMK AO2 SLP260 T01560061 51015
KLCI 181356Z AUTO 23009KT 10SM CLR 13/05 A3023 RMK AO2 SLP256 T01330050
KLCI 181256Z AUTO 10SM CLR 11/04 A3023 RMK AO2 SLP257 T01110039
KLCI 181156Z AUTO 24004KT 10SM CLR 08/03 A3020 RMK AO2 SLP246 T00830028 10083 20033 53016